Terminal Aerodrome Forecast
Issued by NWS Corpus Christi, TX

Home | Current Version | Previous Version | Text Only | Print | Product List | Glossary On
Versions: 1 2 3 4 5 6 7 8 9 10 11 12 13 14 15 16 17
000
FTUS44 KCRP 041133
TAFVCT
TAF
KVCT 041133Z 0412/0512 VRB04KT 6SM BR VCSH SCT018
      TEMPO 0412/0413 4SM BR BKN018
     FM041300 14005KT P6SM VCSH SCT018 SCT030
     FM041800 16012G18KT P6SM SCT035
     FM050000 15008KT P6SM FEW025=

USA.gov is the U.S. government's official web portal to all federal, state and local government web resources and services.